Time;durP1;ratioP1;P1;durP2;ratioP2;P2;SDS_P1;SDS_P2;PMS_P1;PMS_P2;Temp;Humidity;BMP_temperature;BMP_pressure;BME280_temperature;BME280_humidity;BME280_pressure;Samples;Min_cycle;Max_cycle;Signal;HPM_P1;HPM_P2
2024/01/02 00:02:10;;;;;;;14.43;3.40;;;28.10;94.00;;;;;;5066050;28;20464;-72
2024/01/02 00:04:38;;;;;;;10.32;3.08;;;28.30;93.40;;;;;;5052266;28;20051;-72
2024/01/02 00:07:05;;;;;;;6.45;2.63;;;28.60;92.70;;;;;;5053297;28;20107;-73
2024/01/02 00:09:32;;;;;;;7.68;2.70;;;28.60;93.60;;;;;;5056264;28;20045;-72
2024/01/02 00:12:00;;;;;;;10.82;2.42;;;29.20;93.50;;;;;;5062964;28;20086;-72
2024/01/02 00:14:28;;;;;;;13.80;2.92;;;29.10;92.00;;;;;;5057813;28;20024;-72
2024/01/02 00:16:56;;;;;;;10.82;3.00;;;29.00;92.30;;;;;;5063710;28;20428;-72
2024/01/02 00:19:23;;;;;;;7.40;2.88;;;29.00;92.20;;;;;;5064297;28;20035;-71
2024/01/02 00:21:52;;;;;;;6.60;2.72;;;28.90;92.70;;;;;;5062870;28;20024;-72
2024/01/02 00:24:20;;;;;;;9.55;2.35;;;29.30;92.30;;;;;;5057458;28;20094;-71
2024/01/02 00:26:47;;;;;;;11.45;2.70;;;30.00;91.00;;;;;;5059835;28;20021;-71
2024/01/02 00:29:14;;;;;;;9.27;2.80;;;30.80;91.30;;;;;;5059424;28;20488;-72
2024/01/02 00:31:44;;;;;;;8.80;2.85;;;31.20;90.30;;;;;;5057031;28;20170;-72
2024/01/02 00:34:14;;;;;;;7.72;2.63;;;31.20;89.70;;;;;;5055633;28;20028;-73
2024/01/02 00:36:42;;;;;;;9.88;3.10;;;31.20;90.20;;;;;;5062688;28;20028;-72
2024/01/02 00:39:09;;;;;;;6.28;2.47;;;30.60;88.70;;;;;;5061726;28;20078;-72
2024/01/02 00:41:36;;;;;;;7.35;2.55;;;30.10;90.00;;;;;;5059239;28;20058;-72
2024/01/02 00:44:04;;;;;;;6.30;2.30;;;30.10;90.60;;;;;;5055927;28;20033;-72
2024/01/02 00:46:31;;;;;;;9.60;2.55;;;30.40;90.10;;;;;;5060048;28;20029;-72
2024/01/02 00:48:59;;;;;;;10.32;2.63;;;30.40;89.90;;;;;;5058114;28;20028;-73
2024/01/02 00:51:26;;;;;;;8.50;2.53;;;30.90;89.60;;;;;;5038955;28;20143;-72
2024/01/02 00:53:53;;;;;;;8.80;2.42;;;30.80;88.50;;;;;;5058285;28;20037;-72
2024/01/02 00:56:21;;;;;;;5.80;2.10;;;31.00;88.60;;;;;;5056579;28;20031;-72
2024/01/02 00:58:48;;;;;;;12.43;2.10;;;31.00;88.20;;;;;;5030324;28;20076;-72
2024/01/02 01:01:17;;;;;;;8.27;2.15;;;31.30;88.40;;;;;;5054398;28;20033;-72
2024/01/02 01:03:45;;;;;;;8.25;2.22;;;31.40;88.00;;;;;;5054956;28;20131;-73
2024/01/02 01:06:12;;;;;;;8.30;2.90;;;30.90;87.90;;;;;;5061476;28;20132;-72
2024/01/02 01:08:39;;;;;;;6.20;2.65;;;31.20;89.20;;;;;;5058583;28;20079;-75
2024/01/02 01:11:07;;;;;;;11.80;2.63;;;31.40;86.50;;;;;;5055029;28;20118;-73
2024/01/02 01:13:34;;;;;;;8.95;2.83;;;31.30;86.20;;;;;;5059345;28;20458;-72
2024/01/02 01:16:03;;;;;;;8.27;2.72;;;30.80;87.60;;;;;;5056997;28;20025;-70
2024/01/02 01:18:30;;;;;;;8.10;2.88;;;30.60;88.70;;;;;;5050881;28;20021;-71
2024/01/02 01:20:57;;;;;;;6.55;2.20;;;30.20;88.70;;;;;;5053381;28;20032;-72
2024/01/02 01:23:25;;;;;;;8.57;2.58;;;30.10;90.20;;;;;;5050407;28;20080;-73
2024/01/02 01:25:52;;;;;;;8.07;2.50;;;30.20;90.40;;;;;;5054684;28;20013;-73
2024/01/02 01:28:19;;;;;;;8.48;2.25;;;30.60;90.10;;;;;;5052763;28;20017;-73
2024/01/02 01:30:47;;;;;;;8.48;3.08;;;30.60;89.10;;;;;;5064099;28;20108;-73
2024/01/02 01:33:14;;;;;;;7.18;2.03;;;30.60;90.00;;;;;;5060390;28;20032;-71
2024/01/02 01:35:41;;;;;;;13.25;2.67;;;30.60;88.70;;;;;;5057648;28;20949;-73
2024/01/02 01:38:09;;;;;;;11.23;2.78;;;30.20;90.10;;;;;;5061395;28;20072;-74
2024/01/02 01:40:36;;;;;;;5.75;2.63;;;30.40;90.00;;;;;;5057250;28;20020;-71
2024/01/02 01:43:11;;;;;;;7.85;2.58;;;30.20;90.00;;;;;;5036045;28;20091;-71
2024/01/02 01:45:39;;;;;;;8.68;2.70;;;30.10;90.00;;;;;;5057226;28;20059;-72
2024/01/02 01:48:09;;;;;;;7.55;3.38;;;30.10;90.30;;;;;;5058805;28;20020;-72
2024/01/02 01:50:37;;;;;;;11.30;2.80;;;30.70;90.20;;;;;;5056121;28;20036;-72
2024/01/02 01:53:06;;;;;;;12.30;2.78;;;30.80;89.10;;;;;;5061737;28;20621;-72
2024/01/02 01:55:34;;;;;;;8.57;2.58;;;31.20;89.10;;;;;;5058745;28;20363;-72
2024/01/02 01:58:02;;;;;;;8.15;1.90;;;31.00;87.00;;;;;;5057656;28;20017;-72
2024/01/02 02:00:29;;;;;;;7.18;2.53;;;30.70;88.20;;;;;;5055709;28;20111;-73
2024/01/02 02:02:58;;;;;;;9.88;2.72;;;30.90;88.10;;;;;;5058777;28;20099;-73
2024/01/02 02:05:30;;;;;;;10.35;2.50;;;30.70;88.10;;;;;;5055151;28;20028;-72
2024/01/02 02:07:58;;;;;;;6.30;2.20;;;30.60;88.40;;;;;;5054730;28;20035;-73
2024/01/02 02:10:25;;;;;;;7.88;2.53;;;30.30;89.30;;;;;;5056330;28;20147;-72
2024/01/02 02:12:53;;;;;;;11.30;3.47;;;30.40;90.00;;;;;;5056591;28;20106;-72
2024/01/02 02:15:21;;;;;;;14.48;2.83;;;30.30;89.80;;;;;;5056988;28;20029;-72
2024/01/02 02:17:48;;;;;;;8.32;2.63;;;30.20;90.30;;;;;;5056444;28;20064;-72
2024/01/02 02:20:16;;;;;;;9.50;2.80;;;30.20;90.00;;;;;;5052164;28;20074;-73
2024/01/02 02:22:51;;;;;;;9.35;2.47;;;30.50;89.30;;;;;;5020583;28;20463;-72
2024/01/02 02:25:19;;;;;;;11.38;2.90;;;30.50;89.20;;;;;;5034074;28;20131;-73
2024/01/02 02:27:49;;;;;;;8.93;2.63;;;30.50;88.40;;;;;;5048059;28;20033;-72
2024/01/02 02:30:21;;;;;;;9.30;2.55;;;30.70;89.00;;;;;;5057135;28;20020;-71
2024/01/02 02:32:52;;;;;;;7.10;2.45;;;31.00;88.10;;;;;;5057615;28;20028;-72
2024/01/02 02:35:19;;;;;;;6.80;1.35;;;31.50;87.20;;;;;;5057731;28;20110;-72
2024/01/02 02:37:49;;;;;;;7.97;1.77;;;32.20;85.20;;;;;;5055788;28;20021;-73
2024/01/02 02:40:20;;;;;;;12.63;1.95;;;32.10;84.20;;;;;;5038707;28;20132;-73
2024/01/02 02:42:48;;;;;;;8.52;1.90;;;32.00;84.90;;;;;;5024845;28;20060;-73
2024/01/02 02:45:16;;;;;;;6.60;1.77;;;32.00;84.40;;;;;;5051438;28;20043;-74
2024/01/02 02:47:43;;;;;;;6.13;2.25;;;31.70;85.20;;;;;;5057570;28;20055;-74
2024/01/02 02:50:11;;;;;;;7.03;1.90;;;31.60;84.80;;;;;;5043626;28;20514;-72
2024/01/02 02:52:41;;;;;;;7.65;2.47;;;31.50;85.40;;;;;;5056352;28;20452;-73
2024/01/02 02:55:10;;;;;;;4.97;1.90;;;31.50;85.20;;;;;;5052523;28;20115;-73
2024/01/02 02:57:38;;;;;;;4.55;2.05;;;31.50;84.70;;;;;;5036179;28;20028;-72
2024/01/02 03:00:10;;;;;;;7.35;2.47;;;31.30;86.60;;;;;;5055800;28;20111;-72
2024/01/02 03:02:38;;;;;;;6.70;1.90;;;31.20;85.30;;;;;;5050775;28;20083;-72
2024/01/02 03:05:11;;;;;;;5.45;2.25;;;31.30;84.60;;;;;;5052171;28;20047;-75
2024/01/02 03:07:41;;;;;;;9.32;1.90;;;31.40;85.50;;;;;;5052256;28;20083;-72
2024/01/02 03:10:10;;;;;;;4.75;1.77;;;31.40;85.10;;;;;;5050558;28;20074;-72
2024/01/02 03:12:38;;;;;;;9.23;2.28;;;31.50;84.90;;;;;;5034753;28;20374;-72
2024/01/02 03:15:17;;;;;;;11.10;2.88;;;31.60;85.30;;;;;;5058093;28;20037;-73
2024/01/02 03:17:45;;;;;;;6.60;1.88;;;31.30;84.60;;;;;;5058124;28;20021;-72
2024/01/02 03:20:12;;;;;;;6.22;2.08;;;31.20;84.70;;;;;;5056669;28;20103;-73
2024/01/02 03:22:40;;;;;;;8.05;1.52;;;31.20;84.60;;;;;;5053815;28;20075;-72
2024/01/02 03:25:07;;;;;;;5.20;1.80;;;31.40;83.40;;;;;;5050588;28;20108;-73
2024/01/02 03:27:35;;;;;;;5.95;1.73;;;31.30;84.10;;;;;;5053520;28;20036;-72
2024/01/02 03:30:03;;;;;;;6.47;1.75;;;31.40;84.30;;;;;;5033553;28;20509;-72
2024/01/02 03:32:31;;;;;;;6.65;2.22;;;31.30;84.50;;;;;;5057256;28;20052;-72
2024/01/02 03:34:58;;;;;;;7.15;2.35;;;31.30;86.80;;;;;;5053954;28;20033;-72
2024/01/02 03:37:25;;;;;;;9.68;2.67;;;31.10;88.30;;;;;;5038580;28;20634;-72
2024/01/02 03:39:53;;;;;;;8.75;2.03;;;30.90;88.60;;;;;;5035636;28;20029;-72
2024/01/02 03:42:20;;;;;;;7.22;1.92;;;30.50;89.80;;;;;;5055492;28;20075;-72
2024/01/02 03:44:47;;;;;;;9.70;2.28;;;30.20;89.90;;;;;;5042600;28;20490;-71
2024/01/02 03:47:15;;;;;;;12.20;2.83;;;30.20;90.70;;;;;;5042286;28;20033;-70
2024/01/02 03:49:42;;;;;;;9.82;2.92;;;30.30;90.30;;;;;;5045185;28;20024;-71
2024/01/02 03:52:09;;;;;;;7.63;2.22;;;30.30;90.10;;;;;;5031777;28;20367;-69
2024/01/02 03:54:37;;;;;;;10.55;2.42;;;30.10;90.10;;;;;;5042449;28;20115;-70
2024/01/02 03:57:05;;;;;;;11.07;2.40;;;30.20;90.60;;;;;;5047435;28;20055;-71
2024/01/02 03:59:32;;;;;;;9.07;2.58;;;30.20;90.70;;;;;;5053887;28;20024;-71
2024/01/02 04:01:59;;;;;;;14.48;2.90;;;30.20;90.90;;;;;;5036700;28;20040;-70
2024/01/02 04:04:27;;;;;;;8.63;2.33;;;30.20;91.00;;;;;;5043365;28;20044;-71
2024/01/02 04:06:54;;;;;;;8.90;2.50;;;30.20;91.10;;;;;;5047705;28;20036;-71
2024/01/02 04:09:23;;;;;;;11.00;3.05;;;30.20;91.20;;;;;;5048015;28;20170;-71
2024/01/02 04:11:50;;;;;;;13.00;2.47;;;30.50;90.50;;;;;;5055143;28;20043;-72
2024/01/02 04:14:18;;;;;;;11.40;2.63;;;30.70;90.60;;;;;;5054217;28;20056;-73
2024/01/02 04:16:46;;;;;;;10.50;2.47;;;30.70;90.20;;;;;;5060257;28;20025;-73
2024/01/02 04:19:13;;;;;;;11.75;2.55;;;30.90;90.00;;;;;;5033392;28;20532;-73
2024/01/02 04:21:44;;;;;;;10.68;3.13;;;31.00;90.40;;;;;;5059116;28;20041;-72
2024/01/02 04:24:11;;;;;;;12.77;2.70;;;30.80;90.20;;;;;;5058888;28;20067;-72
2024/01/02 04:26:38;;;;;;;8.80;2.63;;;30.70;90.40;;;;;;5058018;28;20021;-71
2024/01/02 04:29:05;;;;;;;11.55;2.17;;;31.20;90.10;;;;;;5050911;28;20028;-72
2024/01/02 04:31:33;;;;;;;15.40;2.63;;;31.40;88.60;;;;;;5054433;28;20072;-73
2024/01/02 04:34:00;;;;;;;11.30;2.72;;;31.20;89.20;;;;;;5052368;28;20090;-73
2024/01/02 04:36:28;;;;;;;10.00;2.58;;;31.00;90.20;;;;;;5036734;28;20116;-73
2024/01/02 04:38:55;;;;;;;7.97;2.55;;;31.00;90.00;;;;;;5057367;28;20132;-73
2024/01/02 04:41:23;;;;;;;8.63;2.08;;;31.00;90.10;;;;;;5053084;28;20071;-72
2024/01/02 04:43:50;;;;;;;6.95;2.03;;;31.00;90.10;;;;;;5052164;28;20075;-72
2024/01/02 04:46:17;;;;;;;8.23;2.00;;;31.10;90.00;;;;;;5062221;28;20087;-73
2024/01/02 04:48:45;;;;;;;8.00;2.28;;;31.00;90.00;;;;;;5053760;28;20040;-73
2024/01/02 04:51:12;;;;;;;12.23;2.53;;;30.80;90.10;;;;;;5055771;28;20029;-73
2024/01/02 04:53:40;;;;;;;10.85;2.50;;;30.50;90.30;;;;;;5031009;28;20029;-73
2024/01/02 04:56:07;;;;;;;7.38;1.90;;;30.10;90.40;;;;;;5051783;28;20116;-73
2024/01/02 04:58:35;;;;;;;9.20;2.40;;;29.80;90.90;;;;;;5054084;28;20529;-74
2024/01/02 05:01:03;;;;;;;15.50;2.85;;;29.60;90.90;;;;;;5055861;28;20012;-73
2024/01/02 05:03:31;;;;;;;10.48;2.15;;;29.50;91.10;;;;;;5053572;28;20374;-73
2024/01/02 05:05:58;;;;;;;7.75;2.50;;;29.50;91.30;;;;;;5054247;28;20024;-73
2024/01/02 05:08:26;;;;;;;9.48;2.60;;;29.60;91.20;;;;;;5053035;28;20020;-74
2024/01/02 05:10:53;;;;;;;13.65;2.63;;;29.80;91.00;;;;;;5049269;28;20452;-73
2024/01/02 05:13:21;;;;;;;9.35;2.40;;;29.70;90.80;;;;;;5051763;28;20028;-74
2024/01/02 05:15:48;;;;;;;7.55;2.50;;;29.60;90.80;;;;;;5051721;28;20978;-73
2024/01/02 05:18:15;;;;;;;10.32;2.50;;;29.70;90.80;;;;;;5055437;28;20144;-73
2024/01/02 05:20:43;;;;;;;8.32;2.45;;;29.70;91.10;;;;;;5052996;28;20033;-74
2024/01/02 05:23:11;;;;;;;14.35;3.20;;;29.40;90.90;;;;;;5051567;28;20079;-74
2024/01/02 05:25:39;;;;;;;9.23;3.15;;;29.40;91.30;;;;;;5051923;28;20553;-73
2024/01/02 05:28:06;;;;;;;12.85;2.95;;;29.50;91.20;;;;;;5036283;28;20884;-73
2024/01/02 05:30:34;;;;;;;13.63;3.72;;;29.50;91.20;;;;;;5049163;28;20024;-73
2024/01/02 05:33:01;;;;;;;11.32;3.03;;;29.60;91.30;;;;;;5052812;28;20024;-74
2024/01/02 05:35:29;;;;;;;8.05;2.10;;;29.80;91.00;;;;;;5055522;28;20136;-74
2024/01/02 05:37:56;;;;;;;10.35;2.65;;;29.90;90.90;;;;;;5052853;28;20029;-74
2024/01/02 05:40:25;;;;;;;6.30;2.33;;;29.90;90.50;;;;;;5054054;28;20560;-74
2024/01/02 05:42:52;;;;;;;10.63;2.20;;;30.10;90.50;;;;;;5056262;28;20037;-74
2024/01/02 05:45:20;;;;;;;8.70;1.80;;;30.20;90.30;;;;;;5051347;28;20479;-73
2024/01/02 05:47:48;;;;;;;9.13;2.20;;;30.10;90.20;;;;;;5051518;28;20021;-74
2024/01/02 05:50:15;;;;;;;13.05;2.40;;;30.00;90.50;;;;;;5034787;28;20108;-73
2024/01/02 05:52:43;;;;;;;5.63;2.20;;;29.90;90.50;;;;;;5054805;28;20378;-73
2024/01/02 05:55:11;;;;;;;11.27;2.63;;;30.00;90.40;;;;;;5033817;28;20385;-73
2024/01/02 05:57:38;;;;;;;10.98;2.90;;;30.00;90.50;;;;;;5050717;28;20021;-73
2024/01/02 06:00:07;;;;;;;12.82;2.30;;;30.10;90.80;;;;;;5057565;28;20923;-73
2024/01/02 06:02:34;;;;;;;11.75;2.15;;;30.00;91.30;;;;;;5051570;28;20040;-73
2024/01/02 06:05:02;;;;;;;6.60;1.90;;;29.90;91.30;;;;;;5051862;28;20024;-73
2024/01/02 06:07:30;;;;;;;11.20;3.30;;;29.90;91.10;;;;;;5050584;28;20021;-73
2024/01/02 06:09:58;;;;;;;12.35;2.97;;;30.00;91.40;;;;;;5048970;28;20470;-73
2024/01/02 06:12:25;;;;;;;9.52;1.80;;;30.20;91.40;;;;;;5048469;28;20075;-73
2024/01/02 06:14:53;;;;;;;10.15;2.33;;;30.20;91.00;;;;;;5044370;28;20029;-73
2024/01/02 06:17:21;;;;;;;9.77;2.10;;;30.10;91.00;;;;;;5046807;28;20032;-73
2024/01/02 06:19:49;;;;;;;11.55;1.75;;;30.10;91.30;;;;;;5030520;28;20041;-73
2024/01/02 06:22:16;;;;;;;10.55;1.85;;;30.00;90.90;;;;;;5046711;28;20628;-72
2024/01/02 06:24:44;;;;;;;12.35;2.20;;;29.60;91.30;;;;;;5048187;28;20462;-72
2024/01/02 06:27:11;;;;;;;11.98;1.95;;;29.30;91.30;;;;;;5043997;28;20025;-73
2024/01/02 06:29:39;;;;;;;15.60;2.70;;;29.00;91.80;;;;;;5044706;28;20031;-73
2024/01/02 06:32:07;;;;;;;4.68;1.88;;;28.90;92.20;;;;;;5046293;28;20032;-73
2024/01/02 06:34:34;;;;;;;8.55;2.00;;;28.80;92.30;;;;;;5047462;28;20028;-72
2024/01/02 06:37:02;;;;;;;9.98;1.80;;;28.70;92.40;;;;;;5045072;28;20027;-72
2024/01/02 06:39:29;;;;;;;11.95;2.42;;;28.40;92.50;;;;;;5044251;28;20033;-74
2024/01/02 06:41:57;;;;;;;13.32;2.60;;;28.30;92.70;;;;;;5045965;28;20043;-73
2024/01/02 06:44:24;;;;;;;7.55;1.65;;;28.20;93.00;;;;;;5048977;28;20048;-74
2024/01/02 06:46:51;;;;;;;9.05;2.10;;;28.10;92.80;;;;;;5048139;28;20391;-76
2024/01/02 06:49:19;;;;;;;12.38;2.58;;;28.00;92.90;;;;;;5046091;28;20037;-74
2024/01/02 06:51:46;;;;;;;10.10;2.22;;;28.00;93.00;;;;;;5046704;28;20112;-74
2024/01/02 06:54:14;;;;;;;9.60;1.85;;;28.00;93.20;;;;;;5048070;28;20024;-74
2024/01/02 06:56:41;;;;;;;11.13;1.95;;;28.00;93.10;;;;;;5031443;28;20048;-73
2024/01/02 06:59:08;;;;;;;8.02;2.10;;;27.90;93.00;;;;;;5048480;28;20028;-75
2024/01/02 07:01:36;;;;;;;17.42;1.90;;;27.90;93.00;;;;;;5047596;28;20029;-74
2024/01/02 07:04:04;;;;;;;6.32;1.70;;;27.80;92.90;;;;;;5048922;28;20060;-74
2024/01/02 07:06:32;;;;;;;10.05;1.77;;;27.80;93.00;;;;;;5049297;28;20037;-73
2024/01/02 07:08:59;;;;;;;12.40;1.83;;;27.70;93.30;;;;;;5030847;28;20117;-74
2024/01/02 07:11:27;;;;;;;8.18;1.70;;;27.70;93.10;;;;;;5054297;28;20397;-74
2024/01/02 07:13:54;;;;;;;13.02;1.60;;;27.80;93.30;;;;;;5036981;28;20415;-74
2024/01/02 07:16:22;;;;;;;8.77;1.40;;;27.80;93.20;;;;;;5034835;28;20375;-73
2024/01/02 07:18:50;;;;;;;9.75;1.92;;;27.70;93.00;;;;;;5052658;28;20033;-72
2024/01/02 07:21:17;;;;;;;7.95;1.38;;;27.70;93.10;;;;;;5058641;28;20373;-73
2024/01/02 07:23:46;;;;;;;9.25;1.58;;;27.50;93.30;;;;;;5053304;28;20123;-74
2024/01/02 07:26:13;;;;;;;8.73;1.30;;;27.50;93.30;;;;;;5050934;28;20028;-72
2024/01/02 07:28:41;;;;;;;9.98;1.45;;;27.40;93.40;;;;;;5055802;28;20021;-74
2024/01/02 07:31:09;;;;;;;7.88;1.75;;;27.30;93.30;;;;;;5056741;28;20089;-74
2024/01/02 07:33:36;;;;;;;11.35;2.05;;;27.40;93.40;;;;;;5052583;28;20147;-75
2024/01/02 07:36:05;;;;;;;7.40;1.88;;;27.30;93.50;;;;;;5052150;28;20025;-74
2024/01/02 07:38:33;;;;;;;11.30;1.80;;;27.10;93.90;;;;;;5054309;28;20028;-73
2024/01/02 07:41:01;;;;;;;11.48;1.77;;;27.00;94.10;;;;;;5043994;28;20033;-74
2024/01/02 07:43:30;;;;;;;9.27;1.63;;;27.00;94.30;;;;;;5058758;28;20037;-74
2024/01/02 07:45:59;;;;;;;9.73;1.80;;;26.90;94.50;;;;;;5039239;28;20029;-73
2024/01/02 07:48:26;;;;;;;5.05;1.42;;;26.90;94.70;;;;;;5054941;28;20489;-74
2024/01/02 07:50:53;;;;;;;7.50;1.33;;;26.80;94.70;;;;;;5053655;28;20020;-74
2024/01/02 07:53:24;;;;;;;9.93;1.90;;;26.80;94.90;;;;;;5057376;28;20028;-73
2024/01/02 07:55:51;;;;;;;10.05;2.17;;;26.80;94.60;;;;;;5054973;28;20032;-74
2024/01/02 07:58:19;;;;;;;10.15;2.67;;;26.60;94.80;;;;;;5055202;28;20060;-73
2024/01/02 08:00:46;;;;;;;9.07;2.80;;;26.70;94.80;;;;;;5051902;28;20451;-74
2024/01/02 08:03:14;;;;;;;11.50;2.28;;;26.70;94.70;;;;;;5064357;28;20037;-74
2024/01/02 08:05:42;;;;;;;10.77;2.53;;;26.60;94.90;;;;;;5054592;28;20040;-73
2024/01/02 08:08:10;;;;;;;9.70;2.22;;;26.60;95.00;;;;;;5058521;28;20051;-74
2024/01/02 08:10:37;;;;;;;10.45;1.63;;;26.50;95.20;;;;;;5035511;28;20404;-73
2024/01/02 08:13:05;;;;;;;9.18;1.70;;;26.50;95.20;;;;;;5052117;28;20120;-74
2024/01/02 08:15:32;;;;;;;9.75;1.60;;;26.50;95.00;;;;;;5054370;28;20478;-73
2024/01/02 08:18:00;;;;;;;7.53;1.30;;;26.40;95.50;;;;;;5034329;28;20069;-72
2024/01/02 08:20:27;;;;;;;7.18;1.88;;;26.40;95.50;;;;;;5044024;28;20468;-74
2024/01/02 08:22:54;;;;;;;9.40;1.73;;;26.40;95.50;;;;;;5057158;28;20052;-73
2024/01/02 08:25:23;;;;;;;11.57;1.60;;;26.40;95.60;;;;;;5057752;28;20032;-73
2024/01/02 08:27:51;;;;;;;13.98;1.80;;;26.50;95.70;;;;;;5060291;28;20491;-73
2024/01/02 08:30:18;;;;;;;8.80;1.35;;;26.30;95.70;;;;;;5050480;28;20025;-73
2024/01/02 08:32:46;;;;;;;11.43;2.17;;;26.30;95.80;;;;;;5053405;28;20033;-73
2024/01/02 08:35:14;;;;;;;12.07;1.65;;;26.30;95.90;;;;;;5060426;28;20044;-72
2024/01/02 08:37:42;;;;;;;7.50;1.58;;;26.20;96.20;;;;;;5057961;28;20373;-73
2024/01/02 08:40:10;;;;;;;14.43;2.47;;;26.20;96.40;;;;;;5053531;28;20028;-74
2024/01/02 08:42:38;;;;;;;15.32;2.20;;;26.00;96.70;;;;;;5054259;28;20049;-73
2024/01/02 08:45:06;;;;;;;16.10;1.70;;;26.00;97.00;;;;;;5054313;28;20048;-73
2024/01/02 08:47:39;;;;;;;13.15;1.58;;;25.80;97.50;;;;;;5056907;28;20375;-73
2024/01/02 08:50:08;;;;;;;7.13;1.20;;;25.70;97.80;;;;;;5051807;28;20025;-73
2024/01/02 08:52:35;;;;;;;8.55;1.40;;;25.80;97.80;;;;;;5058125;28;20064;-73
2024/01/02 08:55:03;;;;;;;12.15;1.65;;;25.70;97.90;;;;;;5056890;28;20122;-73
2024/01/02 08:57:32;;;;;;;7.13;1.20;;;25.70;98.10;;;;;;5035002;28;20052;-73
2024/01/02 08:59:59;;;;;;;17.50;2.85;;;25.70;98.20;;;;;;5056722;28;20504;-73
2024/01/02 09:02:26;;;;;;;12.18;1.70;;;25.60;98.30;;;;;;5057538;28;20040;-73
2024/01/02 09:04:54;;;;;;;9.57;1.60;;;25.60;98.30;;;;;;5058949;28;20032;-73
2024/01/02 09:07:21;;;;;;;10.07;1.40;;;25.40;98.50;;;;;;5055841;28;20462;-73
2024/01/02 09:09:49;;;;;;;10.25;1.40;;;25.40;98.80;;;;;;5057180;28;20044;-73
2024/01/02 09:12:16;;;;;;;9.45;1.58;;;25.40;98.90;;;;;;5062156;28;20023;-73
2024/01/02 09:14:43;;;;;;;8.77;1.73;;;25.40;98.70;;;;;;5056290;28;20028;-73
2024/01/02 09:17:11;;;;;;;15.40;2.13;;;25.40;98.90;;;;;;5059259;28;20432;-73
2024/01/02 09:19:38;;;;;;;8.63;1.83;;;25.50;98.90;;;;;;5059442;28;20025;-73
2024/01/02 09:22:05;;;;;;;8.27;1.50;;;25.40;98.90;;;;;;5056033;28;20069;-73
2024/01/02 09:24:33;;;;;;;14.20;2.83;;;25.30;99.00;;;;;;5057046;28;20033;-73
2024/01/02 09:27:02;;;;;;;9.25;1.35;;;25.20;99.00;;;;;;5056655;28;20037;-73
2024/01/02 09:29:31;;;;;;;11.00;1.48;;;25.20;99.10;;;;;;5049749;28;20031;-73
2024/01/02 09:31:59;;;;;;;11.20;1.70;;;25.20;99.00;;;;;;5052582;28;20457;-72
2024/01/02 09:34:26;;;;;;;10.27;1.73;;;25.20;99.10;;;;;;5054556;28;20021;-73
2024/01/02 09:36:53;;;;;;;7.55;1.60;;;25.30;98.90;;;;;;5060185;28;20413;-72
2024/01/02 09:39:21;;;;;;;10.48;1.52;;;25.20;99.00;;;;;;5059333;28;20509;-72
2024/01/02 09:42:03;;;;;;;10.63;1.80;;;25.10;99.20;;;;;;5058367;28;20032;-72
2024/01/02 09:44:48;;;;;;;12.43;2.08;;;25.10;99.30;;;;;;5056765;28;20041;-74
2024/01/02 09:47:30;;;;;;;7.85;1.73;;;25.10;99.30;;;;;;5051070;28;20044;-73
2024/01/02 09:50:10;;;;;;;8.10;2.30;;;25.00;99.60;;;;;;5038848;28;20025;-73
2024/01/02 09:52:59;;;;;;;10.57;1.90;;;25.10;99.50;;;;;;5051994;28;20386;-73
2024/01/02 09:55:31;;;;;;;10.50;1.92;;;25.10;99.50;;;;;;5047759;28;20025;-73
2024/01/02 09:58:35;;;;;;;9.65;1.60;;;25.20;99.20;;;;;;5033014;28;20385;-74
2024/01/02 10:01:33;;;;;;;11.73;1.98;;;25.10;99.50;;;;;;5048869;28;20032;-74
2024/01/02 10:04:12;;;;;;;10.73;1.73;;;25.00;99.60;;;;;;5047890;28;20430;-74
2024/01/02 10:07:16;;;;;;;16.90;1.50;;;25.00;99.50;;;;;;5056418;28;20017;-75
2024/01/02 10:10:03;;;;;;;12.85;1.80;;;24.90;99.70;;;;;;5036817;28;20048;-74
2024/01/02 10:12:57;;;;;;;10.00;1.95;;;24.90;99.70;;;;;;5054238;28;20108;-73
2024/01/02 10:16:09;;;;;;;14.25;2.42;;;24.80;99.90;;;;;;5055674;28;20033;-73
2024/01/02 10:18:50;;;;;;;6.75;1.63;;;24.80;99.70;;;;;;4984819;28;20100;-74
2024/01/02 10:21:30;;;;;;;9.77;1.52;;;24.80;99.90;;;;;;4980985;28;20161;-74
2024/01/02 10:24:09;;;;;;;10.00;2.35;;;24.70;99.90;;;;;;5016409;28;20087;-72
2024/01/02 10:26:44;;;;;;;14.25;1.73;;;24.80;99.90;;;;;;5050693;28;20029;-73
2024/01/02 10:29:18;;;;;;;10.60;1.40;;;24.80;99.90;;;;;;5050111;28;20029;-73
2024/01/02 10:32:03;;;;;;;9.77;1.52;;;24.70;99.90;;;;;;5050380;28;20054;-74
2024/01/02 10:34:37;;;;;;;15.35;1.73;;;24.60;99.90;;;;;;5055992;28;20466;-73
2024/01/02 10:37:12;;;;;;;10.18;1.63;;;24.70;99.90;;;;;;5053696;28;20409;-74
2024/01/02 10:39:53;;;;;;;8.65;1.58;;;24.60;99.90;;;;;;5051998;28;20489;-74
2024/01/02 10:42:38;;;;;;;8.30;1.40;;;24.70;99.90;;;;;;5056795;28;20032;-74
2024/01/02 10:45:21;;;;;;;14.32;2.08;;;24.60;99.90;;;;;;5051232;28;20094;-74
2024/01/02 10:48:04;;;;;;;12.60;1.50;;;24.60;99.90;;;;;;5052830;28;20469;-73
2024/01/02 10:51:04;;;;;;;12.23;2.38;;;24.60;99.90;;;;;;5053669;28;20032;-73
2024/01/02 10:54:09;;;;;;;12.57;1.83;;;24.70;99.90;;;;;;5053739;28;20343;-73
2024/01/02 10:56:44;;;;;;;13.70;2.05;;;24.60;99.90;;;;;;5038541;28;20045;-73
2024/01/02 10:59:12;;;;;;;12.27;1.20;;;24.50;99.90;;;;;;5049833;28;20347;-73
2024/01/02 11:01:44;;;;;;;11.20;1.90;;;24.60;99.90;;;;;;5054646;28;20450;-73
2024/01/02 11:04:36;;;;;;;8.07;1.70;;;24.60;99.90;;;;;;5052327;28;20033;-73
2024/01/02 11:07:10;;;;;;;9.13;1.52;;;24.40;99.90;;;;;;5049900;28;20351;-73
2024/01/02 11:09:55;;;;;;;16.27;2.13;;;24.60;99.90;;;;;;5049359;28;20121;-73
2024/01/02 11:12:24;;;;;;;9.70;1.63;;;24.50;99.90;;;;;;5048452;28;20105;-73
2024/01/02 11:14:52;;;;;;;10.32;1.30;;;24.60;99.90;;;;;;5063208;28;20047;-73
2024/01/02 11:17:20;;;;;;;9.65;1.20;;;24.40;99.90;;;;;;5056180;28;20028;-73
2024/01/02 11:19:50;;;;;;;13.75;1.80;;;24.30;99.90;;;;;;5055324;28;20122;-73
2024/01/02 11:22:27;;;;;;;11.75;1.92;;;24.30;99.90;;;;;;5042978;28;20035;-72
2024/01/02 11:25:05;;;;;;;10.68;1.85;;;24.30;99.90;;;;;;5059234;28;20029;-73
2024/01/02 11:27:34;;;;;;;8.50;1.75;;;24.30;99.90;;;;;;5059242;28;20044;-73
2024/01/02 11:30:04;;;;;;;12.77;1.63;;;24.40;99.90;;;;;;5051371;28;20082;-73
2024/01/02 11:33:16;;;;;;;10.65;1.77;;;24.50;99.90;;;;;;5034062;28;20025;-71
2024/01/02 11:36:09;;;;;;;15.77;2.00;;;24.50;99.90;;;;;;5028757;28;20059;-73
2024/01/02 11:39:07;;;;;;;14.23;1.83;;;24.50;99.90;;;;;;5048876;28;20063;-73
2024/01/02 11:41:52;;;;;;;8.82;1.48;;;24.40;99.90;;;;;;5033457;28;20386;-73
2024/01/02 11:44:48;;;;;;;9.02;1.63;;;24.30;99.90;;;;;;5053974;28;20043;-74
2024/01/02 11:47:40;;;;;;;8.50;1.70;;;24.30;99.90;;;;;;5056829;28;20413;-73
2024/01/02 11:50:09;;;;;;;13.55;1.92;;;24.30;99.90;;;;;;5055130;28;20031;-73
2024/01/02 11:52:43;;;;;;;9.07;1.83;;;24.20;99.90;;;;;;5055276;28;20481;-73
2024/01/02 11:55:26;;;;;;;10.45;1.60;;;24.30;99.90;;;;;;5054324;28;20203;-74
2024/01/02 11:57:55;;;;;;;13.77;1.88;;;24.30;99.90;;;;;;5054808;28;20122;-73
2024/01/02 12:00:25;;;;;;;10.52;1.83;;;24.20;99.90;;;;;;5055500;28;20025;-73
2024/01/02 12:03:32;;;;;;;10.20;1.90;;;24.20;99.90;;;;;;5046107;28;20439;-73
2024/01/02 12:06:07;;;;;;;9.93;1.77;;;24.40;99.90;;;;;;5050484;28;20060;-73
2024/01/02 12:08:43;;;;;;;11.50;2.13;;;24.50;99.90;;;;;;5055475;28;20722;-73
2024/01/02 12:11:14;;;;;;;9.43;1.63;;;24.50;99.90;;;;;;5057536;28;20074;-72
2024/01/02 12:14:09;;;;;;;11.27;2.58;;;24.50;99.90;;;;;;5054074;28;20071;-73
2024/01/02 12:16:40;;;;;;;7.85;1.77;;;24.30;99.90;;;;;;5055714;28;20483;-73
2024/01/02 12:19:13;;;;;;;10.10;2.08;;;24.20;99.90;;;;;;5054831;28;20067;-75
2024/01/02 12:21:41;;;;;;;8.75;1.77;;;24.40;99.90;;;;;;5058258;28;20029;-72
2024/01/02 12:24:14;;;;;;;8.98;1.70;;;24.30;99.90;;;;;;5053281;28;20127;-73
2024/01/02 12:26:44;;;;;;;11.15;1.75;;;24.40;99.90;;;;;;5059688;28;20041;-71
2024/01/02 12:29:26;;;;;;;7.90;1.75;;;24.30;99.90;;;;;;5056789;28;20098;-72
2024/01/02 12:32:05;;;;;;;10.98;1.42;;;24.20;99.90;;;;;;5058788;28;20033;-72
2024/01/02 12:34:41;;;;;;;11.98;1.65;;;24.10;99.90;;;;;;5055554;28;20029;-72
2024/01/02 12:37:33;;;;;;;12.23;1.83;;;24.10;99.90;;;;;;5035630;28;20025;-71
2024/01/02 12:40:03;;;;;;;9.07;1.85;;;24.00;99.90;;;;;;5065621;28;20454;-72
2024/01/02 12:42:37;;;;;;;13.60;1.92;;;24.00;99.90;;;;;;5062837;28;20044;-71
2024/01/02 12:45:07;;;;;;;8.85;1.40;;;23.90;99.90;;;;;;5055488;28;20064;-72
2024/01/02 12:47:40;;;;;;;8.85;1.25;;;23.90;99.90;;;;;;5053557;28;20063;-72
2024/01/02 12:50:09;;;;;;;8.55;1.67;;;23.90;99.90;;;;;;5058997;28;20028;-72
2024/01/02 12:52:40;;;;;;;11.40;2.13;;;23.90;99.90;;;;;;5056516;28;20511;-72
2024/01/02 12:55:14;;;;;;;13.43;1.55;;;23.90;99.90;;;;;;5053908;28;20028;-72
2024/01/02 12:57:42;;;;;;;7.60;1.38;;;23.80;99.90;;;;;;5033498;28;20029;-71
2024/01/02 13:00:13;;;;;;;8.68;2.00;;;24.00;99.90;;;;;;5053012;28;20086;-73
2024/01/02 13:02:41;;;;;;;10.82;2.80;;;24.00;99.90;;;;;;5058870;28;20861;-72